Terminal Aerodrome Forecast
Issued by NWS Atlanta, GA

Home | Current Version | Previous Version | Text Only | Print | Product List | Glossary On
Versions: 1 2 3 4 5 6 7 8 9 10 11 12 13 14 15 16
000
FTUS42 KFFC 012300
TAFCSG
TAF
KCSG 012340Z 0200/0224 07005KT P6SM SCT030 BKN200
     FM020800 07003KT 6SM BR BKN025
     FM021000 07005KT 6SM BR BKN015
     FM021500 08005KT P6SM BKN035 PROB30 0215/0220 -SHRA BKN025=

USA.gov is the U.S. government's official web portal to all federal, state and local government web resources and services.